METAR Data
IDs: Format: Raw Decoded Include TAF

Data at: 0427 UTC 21 Sep 2018

KSWO 210353Z AUTO 19009KT 10SM CLR 26/19 A2991 RMK AO2 SLP113 T02610194
KSWO 210253Z AUTO 18010KT 10SM CLR 27/19 A2990 RMK AO2 SLP110 T02720189 51024
KSWO 210153Z AUTO 17011KT 10SM CLR 28/19 A2988 RMK AO2 SLP103 T02780194
KSWO 210053Z AUTO 17007KT 10SM CLR 28/19 A2984 RMK AO2 SLP092 T02830189
KSWO 202353Z 18014KT 10SM CLR 31/18 A2982 RMK AO2 SLP085 T03060183 10333 20306 55007
KSWO 202253Z 18013G21KT 10SM CLR 32/18 A2982 RMK AO2 SLP084 T03170183
KSWO 202153Z 16015G20KT 10SM FEW055 32/19 A2982 RMK AO2 SLP083 T03220189
KSWO 202053Z 17015G23KT 10SM FEW055 33/19 A2984 RMK AO2 SLP091 T03280194 58022
KSWO 201953Z 17014G21KT 10SM FEW049 33/20 A2987 RMK AO2 SLP099 T03280200
KSWO 201853Z 17016KT 10SM FEW048 32/20 A2989 RMK AO2 SLP107 T03220200
KSWO 201753Z 18016G22KT 10SM SCT043 32/21 A2991 RMK AO2 SLP114 T03220206 10322 20222 58009
KSWO 201653Z 20017G22KT 10SM CLR 31/21 A2994 RMK AO2 SLP123 T03110206
KSWO 201553Z 21013KT 10SM CLR 29/21 A2995 RMK AO2 SLP126 T02890206
KSWO 201453Z 18008KT 10SM CLR 26/21 A2994 RMK AO2 SLP124 T02560206 51011
KSWO 201353Z 17008KT 10SM CLR 24/21 A2993 RMK AO2 SLP121 T02390206
KSWO 201253Z 16007KT 10SM CLR 23/20 A2992 RMK AO2 SLP117 T02330200
KSWO 201153Z AUTO 19005KT 10SM CLR 22/20 A2990 RMK AO2 SLP113 T02220200 10250 20222 53003
KSWO 201053Z AUTO 18004KT 10SM CLR 23/20 A2989 RMK AO2 SLP107 T02280200
KSWO 200953Z AUTO 17009KT 10SM CLR 24/20 A2989 RMK AO2 SLP105 T02390200
KSWO 200853Z AUTO 17007KT 10SM CLR 24/20 A2990 RMK AO2 SLP109 T02390200 56005
KSWO 200753Z AUTO 17008KT 10SM CLR 24/19 A2990 RMK AO2 SLP110 T02440194
KSWO 200653Z AUTO 18007KT 10SM CLR 24/19 A2990 RMK AO2 SLP112 T02440194
KSWO 200553Z AUTO 18006KT 10SM CLR 25/19 A2991 RMK AO2 SLP113 T02500189 10306 20244 403390217 51008
KSWO 200453Z AUTO 17008KT 10SM CLR 26/19 A2991 RMK AO2 SLP113 T02560189
KSWO 200353Z AUTO 17006KT 10SM CLR 26/19 A2990 RMK AO2 SLP110 T02610189
KSWO 200253Z AUTO 16007KT 10SM CLR 27/19 A2989 RMK AO2 SLP106 T02670189 53016
KSWO 200153Z AUTO 16009KT 10SM CLR 28/19 A2986 RMK AO2 SLP099 T02830194
KSWO 200053Z AUTO 18005KT 10SM CLR 28/19 A2985 RMK AO2 SLP094 T02780194
KSWO 192353Z 18008KT 10SM CLR 31/18 A2984 RMK AO2 SLP091 T03060183 10339 20306 56011
KSWO 192253Z 18010KT 10SM CLR 33/18 A2985 RMK AO2 SLP092 T03280183
KSWO 192153Z 19012KT 10SM CLR 33/18 A2986 RMK AO2 SLP095 T03330183
KSWO 192053Z 17012KT 10SM CLR 34/18 A2987 RMK AO2 SLP101 T03390183 57022
KSWO 191953Z 18012KT 10SM CLR 33/19 A2989 RMK AO2 SLP108 T03330189
KSWO 191853Z 19013G20KT 10SM CLR 33/18 A2992 RMK AO2 SLP116 T03330183
KSWO 191753Z 19014G18KT 10SM CLR 33/19 A2994 RMK AO2 SLP122 T03330189 10333 20217 58005
KSWO 191653Z 20014G25KT 10SM CLR 32/19 A2995 RMK AO2 SLP127 T03220189